San Francisco, California
Current Conditions -  °F | °C
As of 10:56 PM on Thursday 30 Oct 2014 (Local Time) from KSFO Reporting Station
Broken Clouds Broken Clouds  
Wind Chill: 63°   Ceiling: 1800
Heat Index: 63°   Visibility: 10mi
Dew Point: 57°   Wind: 7mph
Humidity: 81%   Direction: 230°SW
Pressure: 29.92"   Gusts: NA
Location:  37.78°N, 122.42°W
Report Text: KSFO 310556Z 23006KT 10SM BKN018 17/14 A2992 RMK AO2 SLP130 T01720139 10189 20172 53006
Loading
Personal Weather Stations






























Interactive Weather Map
Tropical Storm Tracking
New forecast layout! Learn more

10-Day Weather Forecast

Advertisements
Track Severe Weather on mobile